^^
Turner Downs Weather Station Historical Data
 
Daily Summary for August 04, 2020 Units:  English    Metric   Both
Daily Weekly Monthly Yearly Custom
  Current: High: Low: Average:
Temperature: 84.9 °F 86.5 °F 68.8 °F 75.2 °F
Dew Point: 74.5 °F 77 °F 67.6 °F 71.6 °F
Humidity: 71% 97% 67.8% 89%
Wind Speed: 2mph 17.6mph 0mph 4.1mph
Wind Gust: 3mph 24mph - -
WindWest - - SSW
Pressure: 29.84 in 29.84 in 29.53 in -
Precipitation: 1.40 in      
 
 
Tabular Data for August 04, 2020
Time Temperature Dew Point Pressure Wind Wind Speed Wind Gust Humidity Rainfall Rate (Hourly) solar
04:04 72.6 °F 71.4 °F 29.74 in ENE 3.7 mph 5 mph 96% 0.32 in W/m2
04:09 72.6 °F 71.4 °F 29.74 in NE 5.4 mph 8 mph 96% 0.33 in W/m2
04:14 72.5 °F 71.3 °F 29.74 in ENE 6.7 mph 7 mph 96% 0.33 in W/m2
04:19 72.4 °F 71.2 °F 29.73 in ENE 6.9 mph 8 mph 96% 0.32 in W/m2
04:24 72.4 °F 71.2 °F 29.73 in NE 3.7 mph 10 mph 96% 0.31 in W/m2
04:29 72.3 °F 71.1 °F 29.71 in ENE 3.6 mph 5 mph 96% 0.31 in W/m2
04:34 72.2 °F 71 °F 29.70 in NE 5.2 mph 6 mph 96% 0.31 in W/m2
04:39 72.1 °F 70.9 °F 29.69 in NNW 7 mph 7 mph 96% 0.29 in W/m2
04:44 72.1 °F 70.9 °F 29.68 in ENE 4.3 mph 5.1 mph 96% 0.23 in W/m2
04:49 72.1 °F 70.9 °F 29.68 in North 4.4 mph 7 mph 96% 0.18 in W/m2
04:54 72.1 °F 70.9 °F 29.67 in NE 4.5 mph 7 mph 96% 0.15 in W/m2
04:59 72.1 °F 70.9 °F 29.67 in ENE 5.8 mph 7 mph 96% 0.14 in W/m2
05:04 72.1 °F 70.9 °F 29.66 in NNE 6.8 mph 7 mph 96% 0.14 in W/m2
05:09 72.1 °F 70.9 °F 29.65 in NE 7.2 mph 10 mph 96% 0.14 in W/m2
05:14 72.1 °F 70.9 °F 29.63 in NE 8.5 mph 8 mph 96% 0.17 in W/m2
05:19 72 °F 70.8 °F 29.63 in NE 8.8 mph 15 mph 96% 0.18 in W/m2
05:24 71.9 °F 70.7 °F 29.63 in NE 8.7 mph 13 mph 96% 0.18 in W/m2
05:29 71.9 °F 70.7 °F 29.62 in NE 7.1 mph 14 mph 96% 0.20 in W/m2
05:34 71.8 °F 70.6 °F 29.61 in North 11 mph 10 mph 96% 0.26 in W/m2
05:39 71.8 °F 70.6 °F 29.60 in NNE 14.6 mph 17 mph 96% 0.34 in W/m2
05:44 71.7 °F 70.5 °F 29.59 in ENE 13.3 mph 21 mph 96% 0.41 in W/m2
05:49 71.6 °F 70.4 °F 29.57 in West 9.1 mph 15 mph 96% 0.44 in W/m2
05:54 71.5 °F 70.3 °F 29.57 in NNE 11.5 mph 14 mph 96% 0.46 in W/m2
05:59 71.4 °F 70.2 °F 29.55 in NE 8.3 mph 21 mph 96% 0.47 in W/m2
06:04 71.4 °F 70.2 °F 29.55 in NE 17.1 mph 20 mph 96% 0.46 in W/m2
06:09 71.3 °F 70.1 °F 29.55 in NNE 10.2 mph 24 mph 96% 0.45 in W/m2
06:14 71.3 °F 70.1 °F 29.55 in WNW 17.6 mph 15 mph 96% 0.45 in W/m2
06:19 71.2 °F 70 °F 29.55 in North 11.2 mph 24 mph 96% 0.47 in W/m2
06:24 71.2 °F 70 °F 29.55 in NNW 10.1 mph 18 mph 96% 0.50 in W/m2
06:29 71.1 °F 69.9 °F 29.54 in NNE 11.6 mph 14 mph 96% 0.50 in W/m2
06:34 71.1 °F 69.9 °F 29.54 in NNW 9.2 mph 9.5 mph 96% 0.47 in W/m2
06:39 71 °F 69.8 °F 29.53 in NNW 9.1 mph 13 mph 96% 0.45 in W/m2
06:44 71 °F 69.8 °F 29.53 in NW 10.3 mph 21 mph 96% 0.41 in W/m2
06:49 70.9 °F 69.7 °F 29.53 in NNW 14 mph 17 mph 96% 0.40 in W/m2
06:54 70.9 °F 69.7 °F 29.53 in NW 10.6 mph 20 mph 96% 0.41 in W/m2
06:59 70.8 °F 69.6 °F 29.53 in West 12.9 mph 17 mph 96% 0.44 in W/m2
07:04 70.8 °F 69.6 °F 29.54 in WNW 10.2 mph 14 mph 96% 0.46 in W/m2
07:09 70.8 °F 69.6 °F 29.53 in North 9.8 mph 8.9 mph 96% 0.48 in W/m2
07:14 70.7 °F 69.5 °F 29.54 in NNW 10.1 mph 14 mph 96% 0.47 in W/m2
07:19 70.7 °F 69.5 °F 29.54 in NNW 13.2 mph 11.9 mph 96% 0.45 in W/m2
07:24 70.7 °F 69.5 °F 29.54 in NE 8.8 mph 21 mph 96% 0.44 in W/m2
07:29 70.6 °F 69.4 °F 29.54 in North 11.2 mph 13 mph 96% 0.44 in W/m2
07:34 70.6 °F 69.4 °F 29.54 in NE 10.1 mph 15 mph 96% 0.44 in W/m2
07:39 70.6 °F 69.4 °F 29.54 in NNE 13.1 mph 17 mph 96% 0.41 in W/m2
07:44 70.6 °F 69.4 °F 29.54 in ENE 11.4 mph 15 mph 96% 0.40 in W/m2
07:49 70.5 °F 69.3 °F 29.54 in NE 13.3 mph 12.2 mph 96% 0.39 in W/m2
07:54 70.4 °F 69.2 °F 29.55 in NE 11.5 mph 15 mph 96% 0.38 in W/m2
07:59 70.2 °F 69 °F 29.55 in NNW 10.2 mph 17 mph 95.9% 0.37 in W/m2
08:04 70 °F 68.8 °F 29.56 in WSW 7.5 mph 20 mph 95.9% 0.34 in W/m2
08:09 69.9 °F 68.6 °F 29.57 in NW 5.2 mph 7 mph 95.5% 0.32 in W/m2
08:14 69.9 °F 68.7 °F 29.58 in WNW 2.5 mph 6 mph 96% 0.29 in W/m2
08:19 69.9 °F 68.7 °F 29.59 in WSW 2.7 mph 3.1 mph 96% 0.25 in W/m2
08:24 69.9 °F 68.7 °F 29.60 in WNW 1.7 mph 5 mph 96% 0.23 in W/m2
08:29 69.9 °F 68.7 °F 29.61 in WSW 3.7 mph 3.7 mph 96% 0.19 in W/m2
08:34 69.9 °F 68.7 °F 29.62 in West 3 mph 6 mph 96% 0.16 in W/m2
08:39 70 °F 68.8 °F 29.62 in North 2.6 mph 7 mph 96% 0.14 in W/m2
08:44 70 °F 68.8 °F 29.63 in West 1 mph 5 mph 96% 0.11 in W/m2
08:49 70.1 °F 68.9 °F 29.64 in NW 2.2 mph 3 mph 96% 0.10 in W/m2
08:54 70.1 °F 68.9 °F 29.64 in NNE 2.8 mph 6 mph 96% 0.06 in W/m2
08:59 70.2 °F 69 °F 29.65 in SE 2.7 mph 5 mph 96% 0.04 in W/m2
09:04 70.2 °F 69 °F 29.65 in SW 4.2 mph 5 mph 96% 0.03 in W/m2
09:09 70.2 °F 69 °F 29.65 in SE 4 mph 6 mph 96% 0.03 in W/m2
09:14 70.2 °F 69 °F 29.66 in ENE 2.7 mph 6 mph 96% 0.03 in W/m2
09:19 70.2 °F 69 °F 29.66 in NNW 2.8 mph 6 mph 96% 0.03 in W/m2
09:24 70.1 °F 68.9 °F 29.67 in NNE 3.2 mph 3.2 mph 96% 0.02 in W/m2
09:29 70 °F 68.8 °F 29.67 in NE 2.4 mph 5 mph 96% 0.02 in W/m2
09:34 70 °F 68.8 °F 29.68 in NNW 4.1 mph 3.9 mph 96% 0.01 in W/m2
09:39 69.9 °F 68.7 °F 29.69 in SSW 3.5 mph 5.1 mph 96% 0.01 in W/m2
09:44 69.8 °F 68.6 °F 29.69 in SE 2.8 mph 6 mph 96% 0.01 in W/m2
09:49 69.7 °F 68.5 °F 29.69 in NE 4.5 mph 5.6 mph 96% 0.00 in W/m2
09:54 69.6 °F 68.4 °F 29.70 in NW 3.5 mph 7 mph 96% 0.00 in W/m2
09:59 69.5 °F 68.3 °F 29.71 in SE 1.9 mph 5 mph 96% 0.00 in W/m2
10:04 69.4 °F 68.2 °F 29.72 in South 1 mph 5 mph 96% 0.00 in W/m2
10:09 69.4 °F 68.2 °F 29.72 in ESE 1.3 mph 3 mph 96% 0.00 in W/m2
10:14 69.4 °F 68.2 °F 29.73 in East 1.2 mph 3 mph 96% 0.00 in W/m2
10:19 69.3 °F 68.1 °F 29.73 in East 0.2 mph 1 mph 96% 0.00 in W/m2
10:24 69.2 °F 68 °F 29.73 in East 0.8 mph 0.8 mph 96% 0.00 in W/m2
10:29 69.2 °F 68 °F 29.74 in North 0.8 mph 1 mph 96% 0.00 in W/m2
10:34 69.1 °F 67.9 °F 29.75 in NNE 1.2 mph 3 mph 96% 0.00 in W/m2
10:39 69.1 °F 67.9 °F 29.75 in NNE 0.9 mph 3 mph 96% 0.00 in W/m2
10:44 69.1 °F 67.9 °F 29.76 in North 1.9 mph 2.2 mph 96% 0.00 in W/m2
10:49 69.1 °F 67.9 °F 29.76 in North 1.9 mph 5 mph 96% 0.00 in W/m2
10:54 69.1 °F 67.9 °F 29.77 in NNE 3.5 mph 5 mph 96% 0.00 in W/m2
10:59 69 °F 67.8 °F 29.78 in NNW 2.1 mph 7 mph 96% 0.00 in W/m2
11:04 69 °F 67.8 °F 29.78 in NW 2 mph 5 mph 96% 0.00 in W/m2
11:09 69 °F 67.8 °F 29.78 in NW 0.8 mph 3 mph 96% 0.00 in W/m2
11:14 68.9 °F 67.7 °F 29.79 in North 1 mph 3 mph 96% 0.00 in W/m2
11:19 68.9 °F 67.7 °F 29.79 in North 2.2 mph 3.2 mph 96% 0.00 in W/m2
11:24 68.8 °F 67.6 °F 29.79 in NNW 1.1 mph 5 mph 96% 0.00 in W/m2
11:29 68.8 °F 67.6 °F 29.79 in Calm     96% 0.00 in W/m2
11:34 68.9 °F 67.7 °F 29.79 in Calm     96% 0.00 in W/m2
11:39 68.9 °F 67.7 °F 29.80 in Calm     96% 0.00 in W/m2
11:44 69 °F 67.9 °F 29.80 in NNW 1.1 mph 1.5 mph 96.3% 0.00 in W/m2
11:49 69.1 °F 68.2 °F 29.80 in NW 2.5 mph 3 mph 97% 0.00 in W/m2
11:54 69.3 °F 68.4 °F 29.81 in NW 1 mph 5 mph 97% 0.00 in W/m2
11:59 69.5 °F 68.6 °F 29.81 in WNW 1.5 mph 3 mph 97% 0.00 in W/m2
12:04 69.8 °F 68.9 °F 29.81 in SW 1.2 mph 3 mph 97% 0.00 in W/m2
12:09 70 °F 69.1 °F 29.81 in Calm   3 mph 97% 0.00 in W/m2
12:14 70.2 °F 69.3 °F 29.82 in WNW 0.7 mph 1.4 mph 97% 0.00 in W/m2
12:19 70.3 °F 69.4 °F 29.82 in WSW 3.8 mph 5 mph 97% 0.00 in W/m2
12:24 70.5 °F 69.6 °F 29.82 in SSE 2.2 mph 5 mph 97% 0.00 in W/m2
12:29 70.8 °F 69.9 °F 29.82 in WNW 0.8 mph 5 mph 97% 0.00 in W/m2
12:34 71.4 °F 70.4 °F 29.83 in NW 1.7 mph 2.4 mph 96.6% 0.00 in W/m2
12:39 71.8 °F 70.6 °F 29.83 in NNW 1.1 mph 5 mph 96% 0.00 in W/m2
12:44 71.9 °F 70.4 °F 29.83 in NE 1.5 mph 2.3 mph 95.1% 0.00 in W/m2
12:49 71.9 °F 70.4 °F 29.83 in ESE 0.4 mph 3 mph 95% 0.00 in W/m2
12:54 71.9 °F 70.5 °F 29.83 in WNW 1.5 mph 3 mph 95.3% 0.00 in W/m2
12:59 72.1 °F 70.5 °F 29.83 in NW 3.2 mph 3.2 mph 94.6% 0.00 in W/m2
13:04 72.4 °F 70.6 °F 29.84 in NNW 1.8 mph 6 mph 93.9% 0.00 in W/m2
13:09 72.7 °F 70.5 °F 29.84 in ESE 1 mph 1.4 mph 92.8% 0.00 in W/m2
13:14 73 °F 70.9 °F 29.83 in ENE 2 mph 3.2 mph 93% 0.00 in W/m2
13:19 73 °F 70.9 °F 29.83 in NW 1.7 mph 5 mph 93% 0.00 in W/m2
13:24 73 °F 71 °F 29.83 in NNW 2.2 mph 3.3 mph 93.3% 0.00 in W/m2
13:29 73 °F 71 °F 29.83 in NNW 1.5 mph 5 mph 93.5% 0.00 in W/m2
13:34 73.3 °F 71.4 °F 29.83 in NNW 0.1 mph 3 mph 93.6% 0.00 in W/m2
13:39 73.8 °F 71.5 °F 29.83 in NNW 0.8 mph 1.8 mph 92.6% 0.00 in W/m2
13:44 74.2 °F 71.6 °F 29.82 in NW 1.8 mph 2.6 mph 91.8% 0.00 in W/m2
13:49 74.5 °F 71.7 °F 29.83 in NW 0.8 mph 3 mph 91.3% 0.00 in W/m2
13:54 74.8 °F 71.7 °F 29.83 in NW 1.3 mph 2.4 mph 90.2% 0.00 in W/m2
13:59 75.2 °F 72.1 °F 29.83 in NW 1.4 mph 2.4 mph 90.1% 0.00 in W/m2
14:04 75.6 °F 72.4 °F 29.83 in NNW 1.2 mph 3 mph 89.8% 0.00 in W/m2
14:09 76 °F 72.6 °F 29.83 in NE 2.2 mph 3.1 mph 89.4% 0.00 in W/m2
14:14 76.2 °F 72.5 °F 29.83 in ESE 0.5 mph 3 mph 88.3% 0.00 in W/m2
14:19 76.4 °F 72.7 °F 29.83 in ESE 0.9 mph 1 mph 88.4% 0.00 in W/m2
14:24 77.2 °F 73.3 °F 29.83 in SE 1.5 mph 1.9 mph 87.7% 0.00 in W/m2
14:29 77.4 °F 72.9 °F 29.83 in North 2.1 mph 3.3 mph 86.1% 0.00 in W/m2
14:34 77.9 °F 73.6 °F 29.84 in WNW 1.2 mph 3 mph 86.7% 0.00 in W/m2
14:39 78.3 °F 73.9 °F 29.84 in South 2.8 mph 3.7 mph 86.4% 0.00 in W/m2
14:44 78.7 °F 73.2 °F 29.84 in West 1.9 mph 5 mph 83.2% 0.00 in W/m2
14:49 79.2 °F 73.8 °F 29.84 in West 1.8 mph 2 mph 83.6% 0.00 in W/m2
14:54 80 °F 74.2 °F 29.84 in NW 3 mph 4.5 mph 82.8% 0.00 in W/m2
14:59 80.2 °F 74.5 °F 29.84 in WNW 1.5 mph 5 mph 82.9% 0.00 in W/m2
15:04 80.6 °F 74.9 °F 29.84 in WNW 2.1 mph 3 mph 82.8% 0.00 in W/m2
15:09 80.8 °F 75.1 °F 29.84 in WNW 1.9 mph 3 mph 82.8% 0.00 in W/m2
15:14 81.3 °F 75.1 °F 29.84 in SSW 2.9 mph 4 mph 81.5% 0.00 in W/m2
15:19 81.5 °F 75 °F 29.84 in WSW 2.4 mph 5 mph 80.5% 0.00 in W/m2
15:24 81.4 °F 74.8 °F 29.84 in SSW 2.4 mph 5 mph 80.3% 0.00 in W/m2
15:29 81.6 °F 74.8 °F 29.84 in SSE 2.9 mph 4.9 mph 79.9% 0.00 in W/m2
15:34 81.4 °F 75 °F 29.84 in SE 1.8 mph 5 mph 81.2% 0.00 in W/m2
15:39 81.3 °F 75 °F 29.84 in SSE 1 mph 1.4 mph 81.3% 0.00 in W/m2
15:44 82 °F 75.3 °F 29.84 in SW 0.5 mph 3.2 mph 80.2% 0.00 in W/m2
15:49 82.4 °F 75.7 °F 29.84 in SSW 3.8 mph 5 mph 80.4% 0.00 in W/m2
15:54 82.7 °F 75.6 °F 29.84 in SW 3.8 mph 5 mph 79.2% 0.00 in W/m2
15:59 82.7 °F 75.8 °F 29.84 in South 2.5 mph 5 mph 79.6% 0.00 in W/m2
16:04 82.9 °F 75.3 °F 29.84 in WNW 3.1 mph 6 mph 78.1% 0.00 in W/m2
16:09 83.1 °F 75.4 °F 29.84 in SW 3 mph 5 mph 77.8% 0.00 in W/m2
16:14 83.2 °F 76.1 °F 29.84 in South 2.5 mph 3.7 mph 79.2% 0.00 in W/m2
16:19 83.1 °F 75.3 °F 29.84 in SSW 4.1 mph 4.2 mph 77.5% 0.00 in W/m2
16:24 83 °F 75.4 °F 29.84 in WSW 2.5 mph 6 mph 77.9% 0.00 in W/m2
16:29 82.4 °F 75.1 °F 29.84 in SSE 1.7 mph 3 mph 78.7% 0.00 in W/m2
16:34 82.1 °F 75 °F 29.84 in Calm   3 mph 79.1% 0.00 in W/m2
16:39 83 °F 76 °F 29.84 in Calm     79.6% 0.00 in W/m2
16:44 83.2 °F 75.7 °F 29.84 in WSW 0.9 mph 2.9 mph 78.2% 0.00 in W/m2
16:49 83.6 °F 75.4 °F 29.84 in South 2.7 mph 3.6 mph 76.4% 0.00 in W/m2
16:54 84.1 °F 76.4 °F 29.84 in WSW 2.4 mph 6 mph 77.7% 0.00 in W/m2
16:59 84.7 °F 76.4 °F 29.84 in WNW 2.9 mph 5 mph 76.1% 0.00 in W/m2
17:04 84.7 °F 76 °F 29.84 in SSW 2.8 mph 5 mph 75.4% 0.00 in W/m2
17:09 84 °F 75.9 °F 29.84 in NW 2.2 mph 5 mph 76.8% 0.00 in W/m2
17:14 84 °F 76.4 °F 29.84 in NNW 2.2 mph 3 mph 78% 0.00 in W/m2
17:19 84.5 °F 75.4 °F 29.84 in NNW 2.6 mph 5 mph 74.3% 0.00 in W/m2
17:24 84.7 °F 75.8 °F 29.84 in WNW 3 mph 6 mph 74.9% 0.00 in W/m2
17:29 84.8 °F 76.2 °F 29.84 in West 1.7 mph 5 mph 75.4% 0.00 in W/m2
17:34 85.2 °F 77 °F 29.84 in West 2.2 mph 3.7 mph 76.5% 0.00 in W/m2
17:39 85.6 °F 77 °F 29.84 in SSW 3.1 mph 3.2 mph 75.5% 0.00 in W/m2
17:44 86.1 °F 76.5 °F 29.84 in WNW 2.8 mph 4.4 mph 73.2% 0.00 in W/m2
17:49 86.2 °F 76.9 °F 29.84 in NW 2.4 mph 5 mph 74.1% 0.00 in W/m2
17:54 85.8 °F 76.3 °F 29.84 in WNW 4.5 mph 5.8 mph 73.5% 0.00 in W/m2
17:59 86 °F 76.4 °F 29.84 in SSE 4.3 mph 7 mph 73.3% 0.00 in W/m2
18:04 86.1 °F 76.5 °F 29.84 in SW 2.6 mph 7 mph 73.1% 0.00 in W/m2
18:09 86 °F 76.5 °F 29.84 in SSW 3.2 mph 5 mph 73.4% 0.00 in W/m2
18:14 85.8 °F 75.3 °F 29.84 in WNW 4.2 mph 5 mph 70.8% 0.00 in W/m2
18:19 85.4 °F 75.5 °F 29.84 in SW 2.4 mph 5 mph 72.3% 0.00 in W/m2
18:24 86.1 °F 76.2 °F 29.84 in SW 2.7 mph 3.9 mph 72.5% 0.00 in W/m2
18:29 85.8 °F 75.8 °F 29.84 in WSW 3.7 mph 5 mph 72.1% 0.00 in W/m2
18:34 85.3 °F 76 °F 29.84 in WSW 2.2 mph 5 mph 73.7% 0.00 in W/m2
18:39 85.6 °F 75.2 °F 29.84 in NW 2.3 mph 3 mph 71.3% 0.00 in W/m2
18:44 85.5 °F 75.9 °F 29.84 in WSW 3.3 mph 5 mph 72.9% 0.00 in W/m2
18:49 86 °F 75.5 °F 29.84 in South 2.7 mph 5 mph 71% 0.00 in W/m2
18:54 86.2 °F 75.7 °F 29.84 in WNW 3 mph 5 mph 70.9% 0.00 in W/m2
18:59 86.3 °F 75.6 °F 29.84 in SW 3.3 mph 5 mph 70.5% 0.00 in W/m2
19:04 86.3 °F 75.5 °F 29.84 in South 3.6 mph 5 mph 70.3% 0.00 in W/m2
19:09 86.5 °F 74.6 °F 29.84 in SSW 3.5 mph 6 mph 67.8% 0.00 in W/m2
19:14 85.7 °F 74.8 °F 29.84 in WSW 3 mph 5 mph 70.1% 0.00 in W/m2
19:19 85.1 °F 74.2 °F 29.84 in West 2.2 mph 5 mph 70.1% 0.00 in W/m2
19:24 85.3 °F 74.8 °F 29.84 in West 2.4 mph 3 mph 70.9% 0.00 in W/m2
19:29 84.9 °F 74.5 °F 29.84 in West 2 mph 3 mph 71% 0.00 in W/m2
Raleigh, North Carolina, USA
Compliments of Weather Underground - 2.75 mb